MSC Bremen — A8LK7 — position and weather

sailwx.info

Track history (hours):
 
Tides and Currents Weather Stations Pressure Air Temp Water Temp Dewpoint Dewpoint Depression Visibility Wind Speed Wind Dir Waves Ship Positions

MSC Bremen

Last reported at 2016-Feb-03 16:27 UTC. Time now 2016-Feb-10 12:46 UTC.
Position S 13°07' W 038°25'.

Length 294 m; ; draft 13.7 m.

Type: Ship (hazmat cat A). MMSI: 636091270.

Date/timePositionNaut miles runAvg speedWind from/ knotsBaromVisibWave heightAir tempDewpointWater temp
2016-Feb-03 16:27S 13°07' W 038°25'1111.8
2016-Feb-03 15:33S 13°06' W 038°35'1010.3
2016-Feb-03 14:34S 12°57' W 038°31'1 0.6
2016-Feb-03 13:33S 12°58' W 038°30'0 0.0
2016-Feb-03 12:33S 12°58' W 038°30'0 0.0
2016-Feb-03 11:33S 12°58' W 038°30'0 0.0
2016-Feb-03 10:33S 12°58' W 038°30'0 0.0
2016-Feb-03 09:33S 12°58' W 038°30'0 0.0
2016-Feb-03 08:33S 12°58' W 038°30'0 0.0
2016-Feb-03 07:33S 12°58' W 038°30'0 0.0
2016-Feb-03 06:33S 12°58' W 038°30'0 0.0
2016-Feb-03 05:33S 12°58' W 038°30'0 0.0
2016-Feb-03 04:33S 12°57' W 038°30'0 0.0
2016-Feb-03 03:33S 12°58' W 038°30'0 0.0
2016-Feb-03 02:33S 12°58' W 038°30'0 0.0
2016-Feb-03 01:33S 12°57' W 038°30'0 0.0
2016-Feb-03 00:33S 12°57' W 038°30'0 0.0
2016-Feb-02 23:33S 12°57' W 038°30'0 0.0
2016-Feb-02 22:33S 12°58' W 038°30'0 0.0
2016-Feb-02 21:33S 12°58' W 038°31'0 0.0
2016-Feb-02 20:33S 12°58' W 038°31'0 0.0
2016-Feb-02 19:33S 12°58' W 038°30'0 0.0
2016-Feb-02 18:30S 12°57' W 038°30'0 0.0
2016-Feb-02 17:33S 12°57' W 038°30'0 0.0
2016-Feb-02 16:33S 12°58' W 038°30'0 0.0
2016-Feb-02 15:33S 12°57' W 038°30'0 0.0
2016-Feb-02 14:33S 12°57' W 038°30'0 0.0
2016-Feb-02 13:33S 12°58' W 038°30'0 0.0
2016-Feb-02 12:33S 12°58' W 038°30'0 0.0
2016-Feb-02 11:33S 12°58' W 038°30'0 0.0
2016-Feb-02 10:33S 12°57' W 038°30'0 0.0
2016-Feb-02 09:33S 12°58' W 038°30'1 0.8
2016-Feb-02 08:33S 12°57' W 038°31'8 8.1
2016-Feb-02 07:32S 13°03' W 038°36'1 0.8
2016-Feb-02 06:26S 13°04' W 038°37'0 0.0
2016-Feb-02 05:20S 13°04' W 038°37'0 0.0
2016-Feb-02 04:32S 13°04' W 038°37'0 0.0
2016-Feb-02 03:32S 13°04' W 038°37'0 0.0
2016-Feb-02 02:32S 13°04' W 038°37'0 0.0
2016-Feb-02 01:29S 13°04' W 038°37'0 0.0
2016-Feb-02 00:32S 13°04' W 038°37'0 0.0
2016-Feb-01 23:32S 13°04' W 038°37'0 0.0
2016-Feb-01 22:32S 13°04' W 038°37'0 0.0
2016-Feb-01 21:32S 13°04' W 038°37'0 0.1
2016-Feb-01 20:29S 13°04' W 038°37'0 0.1
2016-Feb-01 19:32S 13°04' W 038°37'0 0.0
2016-Feb-01 18:29S 13°04' W 038°37'0 0.0
2016-Feb-01 17:32S 13°04' W 038°37'0 0.1
2016-Feb-01 16:29S 13°04' W 038°37'0 0.0
2016-Feb-01 15:32S 13°04' W 038°37'0 0.1
2016-Feb-01 14:32S 13°04' W 038°37'4 4.2
2016-Feb-01 13:33S 13°08' W 038°35'1614.2
2016-Feb-01 12:27S 13°23' W 038°33'58213.8
2016-Jan-30 18:18S 22°42' W 041°26'1513.6
2016-Jan-30 17:14S 22°51' W 041°37'913.8
2016-Jan-30 16:33S 22°58' W 041°45'1414.0
2016-Jan-30 15:33S 23°06' W 041°58'1413.5
2016-Jan-30 14:31S 23°06' W 042°13'3313.7
2016-Jan-30 12:07S 23°07' W 042°49'183 5.0
2016-Jan-28 23:24S 24°22' W 045°51'1214.8
2016-Jan-28 22:34S 24°25' W 046°05'1313.4
2016-Jan-28 21:33S 24°18' W 046°17'1413.7
2016-Jan-28 20:33S 24°05' W 046°22'8 8.3
2016-Jan-28 19:33S 23°58' W 046°18'4 3.5
2016-Jan-28 18:31S 23°55' W 046°21'0 0.0
2016-Jan-28 17:22S 23°55' W 046°21'0 0.0
2016-Jan-28 16:19S 23°55' W 046°21'0 0.0
2016-Jan-28 15:25S 23°55' W 046°21'0 0.0
2016-Jan-28 14:31S 23°55' W 046°21'0 0.0
2016-Jan-28 13:31S 23°55' W 046°21'0 0.0
2016-Jan-28 12:31S 23°55' W 046°21'0 0.0
2016-Jan-28 11:31S 23°55' W 046°21'0 0.0
2016-Jan-28 10:31S 23°55' W 046°21'0 0.0
2016-Jan-28 09:31S 23°55' W 046°21'0 0.0
2016-Jan-28 08:16S 23°55' W 046°21'0 0.0
2016-Jan-28 07:31S 23°55' W 046°21'0 0.0
2016-Jan-28 06:31S 23°55' W 046°21'2 2.2
2016-Jan-28 05:31S 23°56' W 046°19'6 6.3
2016-Jan-28 04:33S 24°02' W 046°21'9 8.5
2016-Jan-28 03:33S 24°10' W 046°19'0 0.2
2016-Jan-28 02:30S 24°10' W 046°19'0 0.0
2016-Jan-28 01:33S 24°10' W 046°19'0 0.1
2016-Jan-28 00:33S 24°10' W 046°19'0 0.0
2016-Jan-27 23:33S 24°10' W 046°19'0 0.0
2016-Jan-27 22:33S 24°10' W 046°19'0 0.0
2016-Jan-27 21:33S 24°10' W 046°19'0 0.1
2016-Jan-27 20:33S 24°10' W 046°19'0 0.0
2016-Jan-27 19:30S 24°10' W 046°19'0 0.0
2016-Jan-27 18:33S 24°10' W 046°19'0 0.0
2016-Jan-27 17:33S 24°10' W 046°19'0 0.0
2016-Jan-27 16:30S 24°10' W 046°19'0 0.0
2016-Jan-27 15:33S 24°10' W 046°19'0 0.0
2016-Jan-27 14:30S 24°10' W 046°19'0 0.0
2016-Jan-27 13:33S 24°10' W 046°19'0 0.0
2016-Jan-27 12:33S 24°10' W 046°19'0 0.0
2016-Jan-27 11:24S 24°10' W 046°19'0 0.0
2016-Jan-27 10:33S 24°10' W 046°19'0 0.0
2016-Jan-27 09:30S 24°10' W 046°19'0 0.0
2016-Jan-27 08:33S 24°10' W 046°19'0 0.0
2016-Jan-27 07:24S 24°10' W 046°19'0 0.0
2016-Jan-27 06:33S 24°10' W 046°19'0 0.2
2016-Jan-27 05:30S 24°10' W 046°19'2 2.0
2016-Jan-27 04:33S 24°12' W 046°21'1414.1
2016-Jan-27 03:34S 24°24' W 046°28'1414.2
2016-Jan-27 02:34S 24°37' W 046°35'1414.3
2016-Jan-27 01:34S 24°48' W 046°44'1414.2
2016-Jan-27 00:33S 25°00' W 046°53'1514.3
2016-Jan-26 23:31S 25°12' W 047°02'1414.3
2016-Jan-26 22:34S 25°24' W 047°10'1814.4
2016-Jan-26 21:19S 25°39' W 047°22'1114.1
2016-Jan-26 20:33S 25°47' W 047°28'1414.2
2016-Jan-26 19:33S 25°59' W 047°37'1414.2
2016-Jan-26 18:33S 26°11' W 047°46'1414.4
2016-Jan-26 17:34S 26°23' W 047°55'  
Track history (hours):
 
Tides and Currents Weather Stations Pressure Air Temp Water Temp Dewpoint Dewpoint Depression Visibility Wind Speed Wind Dir Waves Ship Positions

MSC Bremen

Last reported at 2016-Feb-03 16:27 UTC. Time now 2016-Feb-10 12:46 UTC.
Position S 13°07' W 038°25'.

Length 294 m; ; draft 13.7 m.

Type: Ship (hazmat cat A). MMSI: 636091270.

Date/timePositionNaut miles runAvg speedWind from/ knotsBaromVisibWave heightAir tempDewpointWater temp
2016-Feb-03 16:27S 13°07' W 038°25'1111.8
2016-Feb-03 15:33S 13°06' W 038°35'1010.3
2016-Feb-03 14:34S 12°57' W 038°31'1 0.6
2016-Feb-03 13:33S 12°58' W 038°30'0 0.0
2016-Feb-03 12:33S 12°58' W 038°30'0 0.0
2016-Feb-03 11:33S 12°58' W 038°30'0 0.0
2016-Feb-03 10:33S 12°58' W 038°30'0 0.0
2016-Feb-03 09:33S 12°58' W 038°30'0 0.0
2016-Feb-03 08:33S 12°58' W 038°30'0 0.0
2016-Feb-03 07:33S 12°58' W 038°30'0 0.0
2016-Feb-03 06:33S 12°58' W 038°30'0 0.0
2016-Feb-03 05:33S 12°58' W 038°30'0 0.0
2016-Feb-03 04:33S 12°57' W 038°30'0 0.0
2016-Feb-03 03:33S 12°58' W 038°30'0 0.0
2016-Feb-03 02:33S 12°58' W 038°30'0 0.0
2016-Feb-03 01:33S 12°57' W 038°30'0 0.0
2016-Feb-03 00:33S 12°57' W 038°30'0 0.0
2016-Feb-02 23:33S 12°57' W 038°30'0 0.0
2016-Feb-02 22:33S 12°58' W 038°30'0 0.0
2016-Feb-02 21:33S 12°58' W 038°31'0 0.0
2016-Feb-02 20:33S 12°58' W 038°31'0 0.0
2016-Feb-02 19:33S 12°58' W 038°30'0 0.0
2016-Feb-02 18:30S 12°57' W 038°30'0 0.0
2016-Feb-02 17:33S 12°57' W 038°30'0 0.0
2016-Feb-02 16:33S 12°58' W 038°30'0 0.0
2016-Feb-02 15:33S 12°57' W 038°30'0 0.0
2016-Feb-02 14:33S 12°57' W 038°30'0 0.0
2016-Feb-02 13:33S 12°58' W 038°30'0 0.0
2016-Feb-02 12:33S 12°58' W 038°30'0 0.0
2016-Feb-02 11:33S 12°58' W 038°30'0 0.0
2016-Feb-02 10:33S 12°57' W 038°30'0 0.0
2016-Feb-02 09:33S 12°58' W 038°30'1 0.8
2016-Feb-02 08:33S 12°57' W 038°31'8 8.1
2016-Feb-02 07:32S 13°03' W 038°36'1 0.8
2016-Feb-02 06:26S 13°04' W 038°37'0 0.0
2016-Feb-02 05:20S 13°04' W 038°37'0 0.0
2016-Feb-02 04:32S 13°04' W 038°37'0 0.0
2016-Feb-02 03:32S 13°04' W 038°37'0 0.0
2016-Feb-02 02:32S 13°04' W 038°37'0 0.0
2016-Feb-02 01:29S 13°04' W 038°37'0 0.0
2016-Feb-02 00:32S 13°04' W 038°37'0 0.0
2016-Feb-01 23:32S 13°04' W 038°37'0 0.0
2016-Feb-01 22:32S 13°04' W 038°37'0 0.0
2016-Feb-01 21:32S 13°04' W 038°37'0 0.1
2016-Feb-01 20:29S 13°04' W 038°37'0 0.1
2016-Feb-01 19:32S 13°04' W 038°37'0 0.0
2016-Feb-01 18:29S 13°04' W 038°37'0 0.0
2016-Feb-01 17:32S 13°04' W 038°37'0 0.1
2016-Feb-01 16:29S 13°04' W 038°37'0 0.0
2016-Feb-01 15:32S 13°04' W 038°37'0 0.1
2016-Feb-01 14:32S 13°04' W 038°37'4 4.2
2016-Feb-01 13:33S 13°08' W 038°35'1614.2
2016-Feb-01 12:27S 13°23' W 038°33'58213.8
2016-Jan-30 18:18S 22°42' W 041°26'1513.6
2016-Jan-30 17:14S 22°51' W 041°37'913.8
2016-Jan-30 16:33S 22°58' W 041°45'1414.0
2016-Jan-30 15:33S 23°06' W 041°58'1413.5
2016-Jan-30 14:31S 23°06' W 042°13'3313.7
2016-Jan-30 12:07S 23°07' W 042°49'183 5.0
2016-Jan-28 23:24S 24°22' W 045°51'1214.8
2016-Jan-28 22:34S 24°25' W 046°05'1313.4
2016-Jan-28 21:33S 24°18' W 046°17'1413.7
2016-Jan-28 20:33S 24°05' W 046°22'8 8.3
2016-Jan-28 19:33S 23°58' W 046°18'4 3.5
2016-Jan-28 18:31S 23°55' W 046°21'0 0.0
2016-Jan-28 17:22S 23°55' W 046°21'0 0.0
2016-Jan-28 16:19S 23°55' W 046°21'0 0.0
2016-Jan-28 15:25S 23°55' W 046°21'0 0.0
2016-Jan-28 14:31S 23°55' W 046°21'0 0.0
2016-Jan-28 13:31S 23°55' W 046°21'0 0.0
2016-Jan-28 12:31S 23°55' W 046°21'0 0.0
2016-Jan-28 11:31S 23°55' W 046°21'0 0.0
2016-Jan-28 10:31S 23°55' W 046°21'0 0.0
2016-Jan-28 09:31S 23°55' W 046°21'0 0.0
2016-Jan-28 08:16S 23°55' W 046°21'0 0.0
2016-Jan-28 07:31S 23°55' W 046°21'0 0.0
2016-Jan-28 06:31S 23°55' W 046°21'2 2.2
2016-Jan-28 05:31S 23°56' W 046°19'6 6.3
2016-Jan-28 04:33S 24°02' W 046°21'9 8.5
2016-Jan-28 03:33S 24°10' W 046°19'0 0.2
2016-Jan-28 02:30S 24°10' W 046°19'0 0.0
2016-Jan-28 01:33S 24°10' W 046°19'0 0.1
2016-Jan-28 00:33S 24°10' W 046°19'0 0.0
2016-Jan-27 23:33S 24°10' W 046°19'0 0.0
2016-Jan-27 22:33S 24°10' W 046°19'0 0.0
2016-Jan-27 21:33S 24°10' W 046°19'0 0.1
2016-Jan-27 20:33S 24°10' W 046°19'0 0.0
2016-Jan-27 19:30S 24°10' W 046°19'0 0.0
2016-Jan-27 18:33S 24°10' W 046°19'0 0.0
2016-Jan-27 17:33S 24°10' W 046°19'0 0.0
2016-Jan-27 16:30S 24°10' W 046°19'0 0.0
2016-Jan-27 15:33S 24°10' W 046°19'0 0.0
2016-Jan-27 14:30S 24°10' W 046°19'0 0.0
2016-Jan-27 13:33S 24°10' W 046°19'0 0.0
2016-Jan-27 12:33S 24°10' W 046°19'0 0.0
2016-Jan-27 11:24S 24°10' W 046°19'0 0.0
2016-Jan-27 10:33S 24°10' W 046°19'0 0.0
2016-Jan-27 09:30S 24°10' W 046°19'0 0.0
2016-Jan-27 08:33S 24°10' W 046°19'0 0.0
2016-Jan-27 07:24S 24°10' W 046°19'0 0.0
2016-Jan-27 06:33S 24°10' W 046°19'0 0.2
2016-Jan-27 05:30S 24°10' W 046°19'2 2.0
2016-Jan-27 04:33S 24°12' W 046°21'1414.1
2016-Jan-27 03:34S 24°24' W 046°28'1414.2
2016-Jan-27 02:34S 24°37' W 046°35'1414.3
2016-Jan-27 01:34S 24°48' W 046°44'1414.2
2016-Jan-27 00:33S 25°00' W 046°53'1514.3
2016-Jan-26 23:31S 25°12' W 047°02'1414.3
2016-Jan-26 22:34S 25°24' W 047°10'1814.4
2016-Jan-26 21:19S 25°39' W 047°22'1114.1
2016-Jan-26 20:33S 25°47' W 047°28'1414.2
2016-Jan-26 19:33S 25°59' W 047°37'1414.2
2016-Jan-26 18:33S 26°11' W 047°46'1414.4
2016-Jan-26 17:34S 26°23' W 047°55'  

Dump ship's entire track history